createdAt,value
2018-04-14T00:01:23.666Z,17.20
2018-04-14T00:03:51.892Z,17.00
2018-04-14T00:06:20.929Z,17.10
2018-04-14T00:08:49.211Z,17.00
2018-04-14T00:11:17.488Z,17.30
2018-04-14T00:13:46.480Z,17.00
2018-04-14T00:16:14.780Z,17.10
2018-04-14T00:18:43.028Z,17.00
2018-04-14T00:21:11.295Z,17.00
2018-04-14T00:23:42.392Z,17.00
2018-04-14T00:26:10.669Z,16.90
2018-04-14T00:28:38.931Z,16.90
2018-04-14T00:31:07.213Z,16.70
2018-04-14T00:33:35.536Z,16.50
2018-04-14T00:36:03.778Z,16.40
2018-04-14T00:38:32.111Z,16.40
2018-04-14T00:41:00.436Z,16.50
2018-04-14T00:43:28.714Z,16.60
2018-04-14T00:45:57.002Z,16.40
2018-04-14T00:48:26.062Z,16.30
2018-04-14T00:50:55.163Z,16.20
2018-04-14T00:53:36.122Z,16.60
2018-04-14T00:56:04.387Z,16.10
2018-04-14T00:58:32.651Z,16.20
2018-04-14T01:01:00.904Z,16.60
2018-04-14T01:03:29.195Z,16.30
2018-04-14T01:05:57.459Z,16.10
2018-04-14T01:08:26.757Z,16.20
2018-04-14T01:10:55.052Z,16.30
2018-04-14T01:13:23.320Z,16.30
2018-04-14T01:15:52.327Z,16.20
2018-04-14T01:18:20.582Z,16.20
2018-04-14T01:20:48.857Z,16.00
2018-04-14T01:23:17.288Z,16.10
2018-04-14T01:25:45.643Z,16.00
2018-04-14T01:28:14.652Z,16.20
2018-04-14T01:30:42.929Z,15.90
2018-04-14T01:33:11.183Z,16.00
2018-04-14T01:35:40.256Z,16.20
2018-04-14T01:38:09.583Z,16.00
2018-04-14T01:40:37.900Z,16.30
2018-04-14T01:43:06.189Z,16.10
2018-04-14T01:45:34.460Z,15.90
2018-04-14T01:48:02.762Z,16.10
2018-04-14T01:50:31.029Z,16.30
2018-04-14T01:52:59.288Z,16.30
2018-04-14T01:55:28.314Z,16.20
2018-04-14T01:57:56.665Z,16.30
2018-04-14T02:00:25.698Z,16.30
2018-04-14T02:02:53.952Z,16.30
2018-04-14T02:05:22.263Z,16.40
2018-04-14T02:07:50.527Z,16.40
2018-04-14T02:10:18.921Z,16.60
2018-04-14T02:12:47.155Z,16.60
2018-04-14T02:15:16.282Z,16.10
2018-04-14T02:17:44.563Z,16.40
2018-04-14T02:20:12.897Z,16.00
2018-04-14T02:22:41.216Z,16.30
2018-04-14T02:25:10.294Z,16.00
2018-04-14T02:27:38.549Z,16.00
2018-04-14T02:30:06.812Z,16.10
2018-04-14T02:32:35.128Z,16.10
2018-04-14T02:35:03.376Z,15.90
2018-04-14T02:37:33.226Z,16.00
2018-04-14T02:40:01.481Z,15.90
2018-04-14T02:42:29.740Z,16.00
2018-04-14T02:44:57.982Z,16.00
2018-04-14T02:47:27.024Z,15.90
2018-04-14T02:49:55.319Z,15.80
2018-04-14T02:52:23.729Z,15.50
2018-04-14T02:54:51.946Z,15.80
2018-04-14T02:57:20.220Z,15.70
2018-04-14T02:59:48.497Z,15.50
2018-04-14T03:02:17.522Z,15.40
2018-04-14T03:04:45.825Z,15.60
2018-04-14T03:07:15.033Z,15.60
2018-04-14T03:09:43.295Z,15.50
2018-04-14T03:12:11.533Z,15.60
2018-04-14T03:14:40.533Z,15.50
2018-04-14T03:17:08.865Z,15.40
2018-04-14T03:19:37.172Z,15.50
2018-04-14T03:22:05.415Z,15.20
2018-04-14T03:24:33.641Z,15.60
2018-04-14T03:27:02.752Z,15.40
2018-04-14T03:29:31.958Z,15.30
2018-04-14T03:32:01.006Z,15.30
2018-04-14T03:34:29.260Z,15.50
2018-04-14T03:36:57.628Z,15.40
2018-04-14T03:39:25.895Z,15.40
2018-04-14T03:41:54.188Z,15.30
2018-04-14T03:44:22.544Z,15.60
2018-04-14T03:46:51.567Z,15.40
2018-04-14T03:49:19.881Z,15.50
2018-04-14T03:51:48.164Z,15.40
2018-04-14T03:54:16.528Z,15.10
2018-04-14T03:56:44.775Z,15.30
2018-04-14T03:59:13.842Z,15.70
2018-04-14T04:01:42.065Z,15.40
2018-04-14T04:04:10.833Z,15.60
2018-04-14T04:06:39.067Z,15.40
2018-04-14T04:09:07.388Z,15.40
2018-04-14T04:11:35.676Z,15.20
2018-04-14T04:14:03.927Z,15.00
2018-04-14T04:16:32.233Z,14.90
2018-04-14T04:19:12.448Z,14.90
2018-04-14T04:21:52.750Z,15.00
2018-04-14T04:24:32.582Z,15.10
2018-04-14T04:27:00.623Z,14.80
2018-04-14T04:29:30.010Z,15.00
2018-04-14T04:32:00.059Z,14.80
2018-04-14T04:34:28.940Z,14.90
2018-04-14T04:36:57.725Z,15.10
2018-04-14T04:39:26.519Z,15.40
2018-04-14T04:41:55.283Z,15.10
2018-04-14T04:44:23.449Z,15.50
2018-04-14T04:46:51.484Z,15.40
2018-04-14T04:49:19.509Z,15.30
2018-04-14T04:51:47.967Z,15.30
2018-04-14T04:54:16.044Z,15.20
2018-04-14T04:56:44.088Z,15.30
2018-04-14T04:59:12.156Z,15.40
2018-04-14T05:01:40.934Z,15.50
2018-04-14T05:04:08.982Z,15.30
2018-04-14T05:06:37.103Z,15.50
2018-04-14T05:09:06.060Z,15.50
2018-04-14T05:11:34.113Z,15.40
2018-04-14T05:14:02.290Z,15.30
2018-04-14T05:16:30.394Z,15.10
2018-04-14T05:18:58.443Z,15.10
2018-04-14T05:21:26.482Z,15.40
2018-04-14T05:23:54.512Z,15.10
2018-04-14T05:26:22.522Z,15.10
2018-04-14T05:28:50.597Z,15.00
2018-04-14T05:31:19.369Z,15.20
2018-04-14T05:33:47.370Z,15.10
2018-04-14T05:36:16.162Z,15.30
2018-04-14T05:38:44.937Z,15.10
2018-04-14T05:41:12.988Z,15.30
2018-04-14T05:43:41.015Z,15.30
2018-04-14T05:46:09.065Z,15.50
2018-04-14T05:48:37.116Z,15.40
2018-04-14T05:51:05.148Z,15.50
2018-04-14T05:53:34.247Z,15.70
2018-04-14T05:56:03.152Z,15.80
2018-04-14T05:58:31.283Z,15.60
2018-04-14T06:01:00.517Z,15.60
2018-04-14T06:03:28.599Z,15.40
2018-04-14T06:05:56.624Z,15.70
2018-04-14T06:08:24.701Z,15.40
2018-04-14T06:10:52.899Z,15.70
2018-04-14T06:13:21.033Z,15.50
2018-04-14T06:15:49.084Z,15.60
2018-04-14T06:18:17.890Z,15.40
2018-04-14T06:20:46.391Z,15.40
2018-04-14T06:23:14.459Z,15.70
2018-04-14T06:25:42.464Z,15.80
2018-04-14T06:28:10.561Z,16.00
2018-04-14T06:30:38.597Z,16.00
2018-04-14T06:33:06.797Z,16.00
2018-04-14T06:35:34.840Z,16.10
2018-04-14T06:38:02.847Z,16.40
2018-04-14T06:40:31.704Z,16.50
2018-04-14T06:42:59.788Z,16.50
2018-04-14T06:45:27.833Z,16.30
2018-04-14T06:47:55.891Z,16.40
2018-04-14T06:50:23.979Z,16.50
2018-04-14T06:52:52.190Z,16.60
2018-04-14T06:55:22.073Z,16.40
2018-04-14T06:57:51.768Z,16.10
2018-04-14T07:00:19.916Z,16.30
2018-04-14T07:02:47.846Z,16.20
2018-04-14T07:05:15.864Z,16.00
2018-04-14T07:07:43.899Z,16.10
2018-04-14T07:10:12.020Z,16.00
2018-04-14T07:12:40.095Z,16.40
2018-04-14T07:15:08.137Z,16.50
2018-04-14T07:17:37.047Z,16.10
2018-04-14T07:20:06.083Z,16.30
2018-04-14T07:22:35.656Z,16.40
2018-04-14T07:25:03.737Z,16.30
2018-04-14T07:27:32.586Z,16.30
2018-04-14T07:30:00.698Z,16.20
2018-04-14T07:32:28.861Z,16.30
2018-04-14T07:34:57.035Z,16.40
2018-04-14T07:37:25.114Z,16.30
2018-04-14T07:39:53.240Z,15.90
2018-04-14T07:42:21.463Z,15.80
2018-04-14T07:44:49.519Z,15.90
2018-04-14T07:47:18.368Z,16.10
2018-04-14T07:49:46.525Z,16.20
2018-04-14T07:52:14.515Z,15.90
2018-04-14T07:54:42.638Z,16.00
2018-04-14T07:57:10.717Z,16.30
2018-04-14T07:59:39.488Z,16.00
2018-04-14T08:02:08.409Z,16.00
2018-04-14T08:04:38.056Z,16.00
2018-04-14T08:07:06.174Z,15.80
2018-04-14T08:09:34.238Z,16.10
2018-04-14T08:12:02.348Z,16.30
2018-04-14T08:14:31.178Z,16.60
2018-04-14T08:16:59.371Z,16.70
2018-04-14T08:19:27.437Z,16.40
2018-04-14T08:21:55.487Z,16.30
2018-04-14T08:24:23.957Z,16.30
2018-04-14T08:26:53.064Z,16.40
2018-04-14T08:29:21.161Z,16.60
2018-04-14T08:31:49.248Z,16.70
2018-04-14T08:34:17.306Z,16.60
2018-04-14T08:36:46.987Z,16.70
2018-04-14T08:39:15.874Z,16.70
2018-04-14T08:41:43.926Z,16.70
2018-04-14T08:44:11.949Z,16.90
2018-04-14T08:46:40.843Z,16.90
2018-04-14T08:49:09.629Z,17.00
2018-04-14T08:51:38.532Z,17.10
2018-04-14T08:54:07.320Z,16.80
2018-04-14T08:56:35.375Z,16.90
2018-04-14T08:59:03.467Z,17.10
2018-04-14T09:01:32.248Z,17.00
2018-04-14T09:04:01.056Z,17.10
2018-04-14T09:06:30.706Z,17.10
2018-04-14T09:08:58.879Z,17.30
2018-04-14T09:11:26.958Z,17.50
2018-04-14T09:13:55.139Z,17.20
2018-04-14T09:16:23.240Z,17.10
2018-04-14T09:18:52.273Z,17.60
2018-04-14T09:21:20.545Z,17.30
2018-04-14T09:23:48.879Z,17.60
2018-04-14T09:26:17.189Z,17.60
2018-04-14T09:28:46.217Z,17.70
2018-04-14T09:31:14.595Z,17.80
2018-04-14T09:33:42.863Z,18.00
2018-04-14T09:36:11.158Z,17.80
2018-04-14T09:38:39.430Z,17.60
2018-04-14T09:41:07.688Z,17.70
2018-04-14T09:43:36.768Z,17.40
2018-04-14T09:46:05.861Z,17.60
2018-04-14T09:48:34.905Z,17.30
2018-04-14T09:51:04.364Z,17.60
2018-04-14T09:53:32.616Z,17.40
2018-04-14T09:56:01.788Z,17.40
2018-04-14T09:58:30.080Z,17.50
2018-04-14T10:01:01.250Z,17.40
2018-04-14T10:03:29.678Z,17.50
2018-04-14T10:05:58.711Z,17.40
2018-04-14T10:08:26.957Z,17.50
2018-04-14T10:10:56.077Z,17.40
2018-04-14T10:13:24.925Z,17.50
2018-04-14T10:15:53.992Z,18.00
2018-04-14T10:18:22.313Z,17.90
2018-04-14T10:20:52.276Z,17.70
2018-04-14T10:23:20.540Z,17.90
2018-04-14T10:25:49.682Z,17.90
2018-04-14T10:28:17.993Z,17.90
2018-04-14T10:30:46.247Z,17.80
2018-04-14T10:33:14.511Z,18.10
2018-04-14T10:35:42.776Z,18.40
2018-04-14T10:38:11.055Z,18.50
2018-04-14T10:40:40.110Z,18.00
2018-04-14T10:43:08.357Z,18.00
2018-04-14T10:45:36.668Z,17.80
2018-04-14T10:48:05.712Z,17.80
2018-04-14T10:50:34.035Z,18.00
2018-04-14T10:53:03.882Z,17.90
2018-04-14T10:55:32.921Z,17.90
2018-04-14T10:58:01.202Z,18.20
2018-04-14T11:00:29.562Z,17.80
2018-04-14T11:02:58.562Z,18.00
2018-04-14T11:05:26.840Z,18.00
2018-04-14T11:07:55.250Z,18.10
2018-04-14T11:10:23.575Z,18.00
2018-04-14T11:12:51.988Z,18.10
2018-04-14T11:15:21.316Z,17.80
2018-04-14T11:17:49.606Z,18.40
2018-04-14T11:20:17.889Z,18.30
2018-04-14T11:22:46.132Z,18.50
2018-04-14T11:25:14.433Z,18.20
2018-04-14T11:27:42.712Z,18.30
2018-04-14T11:30:11.009Z,18.60
2018-04-14T11:32:39.289Z,18.40
2018-04-14T11:35:07.539Z,18.30
2018-04-14T11:37:35.830Z,18.60
2018-04-14T11:40:04.087Z,18.70
2018-04-14T11:42:33.133Z,18.80
2018-04-14T11:45:01.442Z,18.80
2018-04-14T11:47:29.828Z,19.00
2018-04-14T11:49:58.062Z,19.20
2018-04-14T11:52:26.343Z,18.80
2018-04-14T11:54:54.667Z,19.10
2018-04-14T11:57:22.904Z,19.30
2018-04-14T11:59:51.177Z,19.10
2018-04-14T12:02:19.641Z,19.30
2018-04-14T12:04:47.832Z,18.90
2018-04-14T12:07:16.113Z,18.90
2018-04-14T12:09:45.287Z,19.10
2018-04-14T12:12:14.318Z,19.00
2018-04-14T12:14:42.589Z,19.00
2018-04-14T12:17:10.856Z,18.90
2018-04-14T12:19:39.930Z,19.30
2018-04-14T12:22:08.483Z,18.70
2018-04-14T12:24:36.732Z,19.10
2018-04-14T12:27:05.005Z,19.10
2018-04-14T12:29:34.063Z,19.40
2018-04-14T12:32:02.392Z,19.40
2018-04-14T12:34:31.439Z,19.50
2018-04-14T12:37:00.436Z,19.70
2018-04-14T12:39:28.733Z,19.50
2018-04-14T12:41:58.613Z,19.60
2018-04-14T12:44:27.854Z,19.70
2018-04-14T12:46:56.082Z,19.60
2018-04-14T12:49:24.515Z,19.30
2018-04-14T12:51:52.904Z,19.50
2018-04-14T12:54:21.217Z,19.50
2018-04-14T12:56:50.261Z,19.80
2018-04-14T12:59:18.516Z,19.50
2018-04-14T13:01:46.790Z,19.80
2018-04-14T13:04:15.045Z,19.40
2018-04-14T13:06:44.667Z,19.80
2018-04-14T13:09:12.941Z,19.70
2018-04-14T13:11:41.967Z,19.90
2018-04-14T13:14:10.222Z,19.70
2018-04-14T13:16:38.556Z,19.90
2018-04-14T13:19:06.853Z,19.80
2018-04-14T13:21:35.082Z,19.90
2018-04-14T13:24:03.337Z,20.20
2018-04-14T13:26:32.385Z,20.10
2018-04-14T13:29:00.716Z,20.40
2018-04-14T13:31:30.861Z,20.00
2018-04-14T13:33:59.862Z,19.90
2018-04-14T13:36:28.140Z,20.20
2018-04-14T13:38:56.401Z,20.00
2018-04-14T13:41:24.710Z,20.10
2018-04-14T13:43:52.999Z,20.10
2018-04-14T13:46:21.260Z,20.20
2018-04-14T13:48:49.536Z,20.00
2018-04-14T13:51:17.828Z,20.10
2018-04-14T13:53:47.652Z,20.40
2018-04-14T13:56:17.497Z,20.50
2018-04-14T13:58:46.805Z,20.30
2018-04-14T14:01:15.208Z,20.30
2018-04-14T14:03:44.502Z,19.90
2018-04-14T14:06:13.725Z,19.90
2018-04-14T14:08:42.816Z,20.40
2018-04-14T14:11:11.052Z,20.30
2018-04-14T14:13:40.272Z,20.20
2018-04-14T14:16:08.564Z,20.20
2018-04-14T14:18:36.804Z,20.20
2018-04-14T14:21:05.196Z,20.40
2018-04-14T14:23:33.617Z,20.00
2018-04-14T14:26:01.901Z,20.40
2018-04-14T14:28:30.162Z,20.40
2018-04-14T14:30:58.775Z,20.60
2018-04-14T14:33:27.861Z,20.60
2018-04-14T14:35:56.105Z,20.60
2018-04-14T14:38:25.224Z,20.60
2018-04-14T14:40:53.625Z,20.70
2018-04-14T14:43:21.854Z,20.60
2018-04-14T14:45:50.121Z,20.70
2018-04-14T14:48:18.380Z,20.70
2018-04-14T14:50:48.086Z,20.70
2018-04-14T14:53:17.375Z,20.50
2018-04-14T14:55:45.659Z,20.80
2018-04-14T14:58:13.942Z,20.90
2018-04-14T15:00:42.180Z,20.80
2018-04-14T15:03:10.438Z,20.80
2018-04-14T15:05:38.716Z,20.90
2018-04-14T15:08:07.023Z,20.90
2018-04-14T15:10:35.270Z,20.90
2018-04-14T15:13:04.301Z,20.60
2018-04-14T15:15:32.589Z,20.70
2018-04-14T15:18:01.072Z,20.80
2018-04-14T15:20:29.393Z,20.60
2018-04-14T15:22:57.661Z,20.50
2018-04-14T15:25:25.973Z,20.70
2018-04-14T15:27:55.703Z,20.60
2018-04-14T15:30:23.976Z,20.40
2018-04-14T15:32:52.279Z,20.60
2018-04-14T15:35:21.438Z,20.80
2018-04-14T15:37:49.782Z,20.80
2018-04-14T15:40:18.117Z,20.70
2018-04-14T15:42:46.359Z,20.40
2018-04-14T15:45:14.611Z,20.60
2018-04-14T15:47:43.038Z,20.70
2018-04-14T15:50:12.218Z,20.90
2018-04-14T15:52:40.537Z,20.80
2018-04-14T15:55:09.561Z,21.10
2018-04-14T15:57:38.046Z,21.10
2018-04-14T16:00:06.397Z,21.30
2018-04-14T16:02:34.717Z,21.40
2018-04-14T16:05:03.743Z,21.50
2018-04-14T16:07:32.024Z,21.60
2018-04-14T16:10:00.286Z,21.60
2018-04-14T16:12:28.589Z,21.60
2018-04-14T16:14:56.877Z,21.60
2018-04-14T16:17:25.854Z,21.50
2018-04-14T16:19:55.952Z,21.30
2018-04-14T16:22:24.216Z,21.20
2018-04-14T16:24:52.550Z,21.00
2018-04-14T16:27:20.828Z,20.90
2018-04-14T16:29:49.800Z,20.90
2018-04-14T16:32:18.069Z,20.80
2018-04-14T16:34:46.324Z,20.80
2018-04-14T16:37:15.362Z,20.80
2018-04-14T16:39:43.647Z,20.80
2018-04-14T16:42:11.904Z,20.80
2018-04-14T16:44:40.211Z,20.60
2018-04-14T16:47:08.529Z,20.60
2018-04-14T16:49:36.918Z,20.30
2018-04-14T16:52:05.140Z,20.40
2018-04-14T16:54:33.428Z,20.40
2018-04-14T16:57:01.725Z,20.40
2018-04-14T16:59:30.921Z,20.30
2018-04-14T17:02:00.059Z,20.10
2018-04-14T17:04:28.275Z,20.00
2018-04-14T17:06:57.349Z,20.30
2018-04-14T17:09:26.365Z,20.10
2018-04-14T17:11:54.627Z,20.20
2018-04-14T17:14:22.918Z,20.30
2018-04-14T17:16:51.940Z,20.10
2018-04-14T17:19:20.373Z,20.10
2018-04-14T17:21:48.656Z,20.00
2018-04-14T17:24:17.921Z,20.10
2018-04-14T17:26:46.165Z,20.30
2018-04-14T17:29:15.191Z,20.00
2018-04-14T17:31:43.471Z,20.50
2018-04-14T17:34:11.716Z,20.30
2018-04-14T17:36:40.952Z,20.10
2018-04-14T17:39:09.225Z,20.30
2018-04-14T17:41:37.925Z,20.20
2018-04-14T17:44:06.191Z,20.10
2018-04-14T17:46:34.540Z,20.30
2018-04-14T17:49:04.869Z,20.30
2018-04-14T17:51:35.184Z,19.80
2018-04-14T17:54:04.208Z,20.20
2018-04-14T17:56:33.881Z,20.30
2018-04-14T17:59:02.136Z,20.20
2018-04-14T18:01:30.409Z,20.40
2018-04-14T18:03:58.686Z,20.20
2018-04-14T18:06:26.981Z,20.00
2018-04-14T18:08:56.003Z,20.40
2018-04-14T18:11:25.501Z,20.00
2018-04-14T18:13:53.770Z,20.40
2018-04-14T18:16:21.997Z,20.60
2018-04-14T18:18:51.012Z,20.20
2018-04-14T18:21:20.113Z,20.50
2018-04-14T18:23:48.407Z,20.50
2018-04-14T18:26:18.503Z,20.40
2018-04-14T18:28:47.740Z,20.40
2018-04-14T18:31:16.008Z,20.40
2018-04-14T18:33:45.057Z,20.20
2018-04-14T18:36:13.319Z,20.00
2018-04-14T18:38:41.733Z,19.70
2018-04-14T18:41:09.960Z,19.90
2018-04-14T18:43:38.239Z,19.40
2018-04-14T18:46:06.506Z,19.70
2018-04-14T18:48:36.397Z,19.60
2018-04-14T18:51:05.413Z,19.70
2018-04-14T18:53:33.717Z,19.70
2018-04-14T18:56:01.995Z,19.60
2018-04-14T18:58:30.290Z,19.60
2018-04-14T19:00:58.547Z,19.70
2018-04-14T19:03:26.833Z,19.40
2018-04-14T19:05:55.110Z,19.70
2018-04-14T19:08:23.414Z,19.70
2018-04-14T19:10:51.729Z,19.80
2018-04-14T19:13:20.044Z,19.50
2018-04-14T19:15:48.970Z,19.40
2018-04-14T19:18:17.232Z,19.60
2018-04-14T19:20:45.532Z,19.40
2018-04-14T19:23:14.645Z,19.20
2018-04-14T19:25:42.941Z,18.90
2018-04-14T19:28:11.205Z,18.90
2018-04-14T19:30:39.513Z,18.80
2018-04-14T19:33:09.330Z,18.80
2018-04-14T19:35:37.643Z,18.70
2018-04-14T19:38:06.662Z,18.40
2018-04-14T19:40:35.716Z,18.60
2018-04-14T19:43:05.466Z,18.50
2018-04-14T19:45:33.741Z,18.70
2018-04-14T19:48:02.086Z,18.70
2018-04-14T19:50:30.285Z,18.40
2018-04-14T19:52:59.318Z,18.60
2018-04-14T19:55:27.624Z,18.50
2018-04-14T19:57:55.924Z,18.50
2018-04-14T20:00:24.990Z,18.70
2018-04-14T20:02:53.359Z,18.70
2018-04-14T20:05:21.673Z,18.40
2018-04-14T20:07:49.944Z,18.20
2018-04-14T20:10:18.240Z,18.40
2018-04-14T20:12:46.611Z,18.40
2018-04-14T20:15:14.871Z,18.20
2018-04-14T20:17:43.115Z,18.40
2018-04-14T20:20:12.159Z,18.20
2018-04-14T20:22:40.423Z,18.30
2018-04-14T20:25:09.707Z,18.50
2018-04-14T20:27:38.136Z,18.30
2018-04-14T20:30:08.506Z,18.50
2018-04-14T20:32:39.115Z,18.50
2018-04-14T20:35:08.216Z,18.50
2018-04-14T20:37:37.247Z,18.20
2018-04-14T20:40:05.539Z,18.20
2018-04-14T20:42:33.853Z,18.10
2018-04-14T20:45:02.144Z,18.00
2018-04-14T20:47:30.459Z,18.20
2018-04-14T20:50:00.259Z,18.20
2018-04-14T20:52:28.504Z,18.00
2018-04-14T20:54:56.782Z,17.90
2018-04-14T20:57:25.080Z,18.10
2018-04-14T20:59:55.355Z,18.10
2018-04-14T21:02:24.435Z,18.10
2018-04-14T21:04:53.473Z,18.10
2018-04-14T21:07:23.841Z,18.40
2018-04-14T21:09:52.113Z,18.30
2018-04-14T21:12:21.161Z,18.50
2018-04-14T21:14:50.182Z,18.40
2018-04-14T21:17:18.483Z,18.50
2018-04-14T21:19:46.789Z,18.50
2018-04-14T21:22:15.993Z,18.40
2018-04-14T21:24:45.293Z,18.20
2018-04-14T21:27:14.314Z,18.50
2018-04-14T21:29:43.461Z,18.30
2018-04-14T21:32:11.773Z,18.30
2018-04-14T21:34:40.806Z,18.10
2018-04-14T21:37:09.081Z,18.50
2018-04-14T21:39:37.389Z,18.40
2018-04-14T21:42:05.656Z,18.30
2018-04-14T21:44:33.950Z,18.10
2018-04-14T21:47:03.028Z,18.00
2018-04-14T21:49:31.376Z,18.00
2018-04-14T21:51:59.620Z,17.70
2018-04-14T21:54:27.905Z,17.80
2018-04-14T21:56:56.154Z,17.80
2018-04-14T21:59:24.461Z,17.60
2018-04-14T22:01:52.725Z,17.30
2018-04-14T22:04:20.974Z,17.40
2018-04-14T22:06:50.106Z,17.50
2018-04-14T22:09:18.416Z,17.20
2018-04-14T22:11:46.660Z,17.10
2018-04-14T22:14:26.885Z,17.10
2018-04-14T22:16:55.219Z,17.40
2018-04-14T22:19:23.533Z,17.20
2018-04-14T22:21:51.792Z,17.30
2018-04-14T22:24:20.073Z,17.40
2018-04-14T22:26:49.219Z,17.60
2018-04-14T22:29:18.354Z,17.50
2018-04-14T22:31:46.613Z,17.60
2018-04-14T22:34:14.986Z,17.10
2018-04-14T22:36:44.005Z,17.50
2018-04-14T22:39:12.264Z,17.00
2018-04-14T22:41:40.563Z,17.00
2018-04-14T22:44:08.846Z,17.30
2018-04-14T22:46:37.140Z,17.50
2018-04-14T22:49:05.392Z,17.20
2018-04-14T22:51:33.683Z,17.40
2018-04-14T22:54:01.952Z,17.20
2018-04-14T22:56:31.008Z,16.90
2018-04-14T22:59:00.115Z,16.90
2018-04-14T23:01:28.400Z,17.10
2018-04-14T23:03:57.460Z,17.30
2018-04-14T23:06:25.849Z,17.20
2018-04-14T23:08:54.728Z,17.50
2018-04-14T23:11:22.998Z,17.70
2018-04-14T23:13:52.056Z,17.50
2018-04-14T23:16:20.437Z,17.50
2018-04-14T23:18:50.263Z,17.60
2018-04-14T23:21:18.492Z,17.70
2018-04-14T23:23:46.776Z,17.70
2018-04-14T23:26:15.051Z,17.50
2018-04-14T23:28:43.332Z,17.80
2018-04-14T23:31:11.580Z,17.60
2018-04-14T23:33:43.201Z,17.80
2018-04-14T23:36:11.460Z,17.70
2018-04-14T23:38:39.824Z,17.50
2018-04-14T23:41:08.151Z,17.60
2018-04-14T23:43:36.901Z,17.90
2018-04-14T23:46:05.159Z,17.90
2018-04-14T23:48:33.444Z,17.50
2018-04-14T23:51:02.497Z,17.50
2018-04-14T23:53:31.675Z,17.50
2018-04-14T23:55:59.941Z,17.70
2018-04-14T23:58:28.204Z,17.50
